KMVN/MVN METAR and TAF weather

Enter ICAO airport designator
Station Type Date Time Source
KMVN METAR 2022/06/30 13:56 UTC NOAA

KMVN 301356Z AUTO 00000KT 10SM CLR A3016 RMK AO2 SLPNO FZRANO $


Station Type Date Time Source
KMVN Decoded METAR 2022/06/30 13:56 UTC NOAA

Mount Vernon, Mount Vernon Airport, IL, United States (KMVN) 38-19N 088-52W
Jun 30, 2022 - 09:56 AM EDT / 2022.06.30 1356 UTC
Wind: Calm:0
Visibility: 10 mile(s):0
Sky conditions: clear
Pressure (altimeter): 30.16 in. Hg (1021 hPa)
ob: KMVN 301356Z AUTO 00000KT 10SM CLR A3016 RMK AO2 SLPNO FZRANO
cycle: 14

Station Type Date Time Source
KMVN TAF 2022/06/30 12:21 UTC NOAA

TAF KMVN 301120Z 3012/0112 00000KT P6SM SKC
FM301500 20006KT P6SM SKC

Example: see airport list